createdAt,value
2023-03-18T00:02:14.433Z,59.91
2023-03-18T00:06:27.390Z,61.10
2023-03-18T00:10:39.909Z,60.90
2023-03-18T00:14:52.490Z,60.06
2023-03-18T00:19:05.181Z,60.66
2023-03-18T00:23:18.436Z,60.55
2023-03-18T00:27:31.041Z,60.23
2023-03-18T00:31:43.985Z,59.96
2023-03-18T00:35:56.466Z,60.62
2023-03-18T00:40:17.476Z,61.98
2023-03-18T00:44:30.952Z,64.97
2023-03-18T00:48:43.977Z,64.29
2023-03-18T00:52:56.765Z,63.48
2023-03-18T00:57:11.151Z,64.93
2023-03-18T01:01:24.831Z,66.58
2023-03-18T01:05:38.522Z,66.59
2023-03-18T01:09:51.028Z,68.62
2023-03-18T01:14:03.921Z,69.81
2023-03-18T01:18:16.989Z,70.00
2023-03-18T01:22:29.687Z,70.99
2023-03-18T01:26:42.091Z,71.20
2023-03-18T01:30:55.987Z,71.61
2023-03-18T01:35:09.502Z,72.17
2023-03-18T01:39:24.678Z,72.34
2023-03-18T01:43:40.916Z,72.24
2023-03-18T01:47:53.769Z,72.62
2023-03-18T01:52:14.179Z,73.38
2023-03-18T01:56:27.398Z,73.82
2023-03-18T02:00:51.945Z,73.50
2023-03-18T02:05:06.790Z,74.17
2023-03-18T02:09:19.566Z,73.33
2023-03-18T02:13:32.503Z,72.75
2023-03-18T02:17:52.276Z,73.77
2023-03-18T02:22:24.414Z,73.20
2023-03-18T02:27:01.913Z,73.26
2023-03-18T02:31:27.543Z,73.43
2023-03-18T02:35:43.001Z,73.92
2023-03-18T02:39:55.481Z,74.26
2023-03-18T02:44:09.212Z,74.85
2023-03-18T02:48:37.836Z,75.51
2023-03-18T02:52:50.768Z,75.76
2023-03-18T02:57:04.555Z,75.53
2023-03-18T03:01:17.789Z,75.91
2023-03-18T03:05:30.340Z,75.38
2023-03-18T03:09:42.902Z,76.17
2023-03-18T03:13:55.332Z,76.46
2023-03-18T03:18:08.078Z,75.79
2023-03-18T03:22:22.266Z,76.08
2023-03-18T03:26:37.743Z,72.80
2023-03-18T03:30:50.716Z,72.03
2023-03-18T03:35:03.146Z,70.44
2023-03-18T03:39:15.457Z,71.15
2023-03-18T03:43:28.077Z,71.49
2023-03-18T03:47:41.948Z,69.40
2023-03-18T03:51:55.191Z,68.87
2023-03-18T03:56:09.535Z,69.15
2023-03-18T04:00:23.088Z,69.59
2023-03-18T04:04:36.156Z,65.95
2023-03-18T04:08:48.929Z,65.47
2023-03-18T04:13:01.396Z,65.83
2023-03-18T04:17:14.465Z,64.00
2023-03-18T04:21:27.541Z,61.82
2023-03-18T04:25:42.128Z,61.88
2023-03-18T04:29:54.810Z,63.32
2023-03-18T04:34:12.155Z,63.58
2023-03-18T04:38:24.915Z,61.54
2023-03-18T04:42:38.879Z,61.55
2023-03-18T04:46:53.995Z,59.27
2023-03-18T04:51:09.578Z,58.82
2023-03-18T04:55:23.073Z,60.01
2023-03-18T04:59:36.641Z,60.50
2023-03-18T05:03:52.054Z,60.77
2023-03-18T05:08:07.826Z,61.69
2023-03-18T05:12:20.759Z,61.26
2023-03-18T05:16:33.320Z,62.09
2023-03-18T05:20:47.142Z,62.40
2023-03-18T05:25:02.241Z,62.47
2023-03-18T05:29:16.899Z,63.37
2023-03-18T05:33:38.498Z,66.00
2023-03-18T05:37:51.408Z,67.20
2023-03-18T05:42:05.104Z,67.12
2023-03-18T05:46:18.298Z,66.34
2023-03-18T05:50:47.293Z,64.08
2023-03-18T05:55:05.319Z,62.77
2023-03-18T05:59:24.190Z,65.57
2023-03-18T06:03:41.936Z,62.85
2023-03-18T06:07:55.227Z,60.71
2023-03-18T06:12:08.159Z,60.61
2023-03-18T06:16:22.604Z,61.58
2023-03-18T06:20:38.939Z,61.66
2023-03-18T06:24:52.950Z,61.41
2023-03-18T06:29:05.632Z,60.83
2023-03-18T06:33:18.601Z,60.25
2023-03-18T06:37:31.505Z,60.32
2023-03-18T06:41:44.004Z,60.20
2023-03-18T06:46:29.311Z,59.51
2023-03-18T06:50:43.366Z,58.56
2023-03-18T06:55:03.011Z,57.59
2023-03-18T06:59:15.800Z,56.45
2023-03-18T07:03:28.504Z,55.37
2023-03-18T07:07:42.306Z,53.76
2023-03-18T07:11:57.002Z,51.78
2023-03-18T07:16:10.216Z,50.88
2023-03-18T07:20:24.323Z,49.90
2023-03-18T07:24:37.760Z,47.80
2023-03-18T07:28:50.752Z,47.36
2023-03-18T07:33:04.398Z,46.54
2023-03-18T07:37:17.205Z,45.83
2023-03-18T07:41:29.952Z,46.44
2023-03-18T07:45:42.308Z,45.02
2023-03-18T07:49:54.750Z,44.16
2023-03-18T07:54:07.220Z,43.51
2023-03-18T07:58:19.946Z,42.06
2023-03-18T08:02:32.378Z,41.74
2023-03-18T08:06:45.284Z,41.23
2023-03-18T08:11:00.662Z,41.52
2023-03-18T08:15:14.050Z,40.64
2023-03-18T08:19:27.357Z,39.24
2023-03-18T08:23:39.912Z,38.44
2023-03-18T08:27:52.616Z,40.37
2023-03-18T08:32:05.335Z,39.30
2023-03-18T08:36:17.932Z,39.59
2023-03-18T08:40:30.317Z,38.91
2023-03-18T08:44:43.753Z,38.41
2023-03-18T08:48:56.118Z,38.72
2023-03-18T08:53:09.657Z,37.99
2023-03-18T08:57:22.294Z,36.64
2023-03-18T09:01:38.481Z,36.99
2023-03-18T09:05:54.067Z,37.70
2023-03-18T09:10:07.075Z,36.25
2023-03-18T09:14:20.195Z,35.52
2023-03-18T09:18:33.154Z,34.78
2023-03-18T09:22:46.726Z,35.44
2023-03-18T09:27:00.163Z,33.27
2023-03-18T09:31:14.028Z,34.30
2023-03-18T09:35:26.566Z,34.22
2023-03-18T09:39:39.174Z,33.59
2023-03-18T09:44:28.717Z,33.99
2023-03-18T09:49:04.062Z,34.56
2023-03-18T09:53:25.390Z,33.89
2023-03-18T09:57:43.029Z,33.36
2023-03-18T10:01:58.731Z,33.43
2023-03-18T10:06:21.965Z,33.74
2023-03-18T10:10:46.981Z,32.17
2023-03-18T10:15:11.359Z,31.12
2023-03-18T10:19:24.084Z,32.57
2023-03-18T10:23:54.737Z,33.81
2023-03-18T10:28:33.891Z,31.94
2023-03-18T10:32:58.431Z,32.43
2023-03-18T10:37:26.133Z,31.21
2023-03-18T10:41:41.332Z,32.38
2023-03-18T10:46:03.964Z,30.87
2023-03-18T10:50:32.357Z,33.87
2023-03-18T10:54:53.702Z,33.74
2023-03-18T10:59:16.568Z,34.07
2023-03-18T11:03:36.213Z,32.19
2023-03-18T11:08:00.902Z,30.82
2023-03-18T11:12:19.648Z,30.35
2023-03-18T11:16:35.110Z,30.29
2023-03-18T11:20:49.989Z,31.62
2023-03-18T11:25:27.262Z,33.61
2023-03-18T11:29:46.832Z,33.45
2023-03-18T11:34:01.125Z,31.96
2023-03-18T11:38:32.170Z,32.66
2023-03-18T11:42:49.204Z,31.66
2023-03-18T11:47:04.026Z,30.28
2023-03-18T11:51:50.471Z,30.58
2023-03-18T11:56:19.296Z,27.10
2023-03-18T12:00:57.956Z,22.34
2023-03-18T12:05:21.968Z,22.51
2023-03-18T12:09:38.735Z,23.88
2023-03-18T12:13:53.186Z,27.52
2023-03-18T12:18:20.795Z,28.82
2023-03-18T12:22:50.004Z,29.29
2023-03-18T12:27:40.280Z,29.13
2023-03-18T12:32:15.857Z,30.85
2023-03-18T12:36:44.691Z,30.83
2023-03-18T12:41:17.867Z,33.48
2023-03-18T12:45:39.915Z,35.16
2023-03-18T12:50:01.244Z,34.59
2023-03-18T12:54:18.310Z,35.91
2023-03-18T12:58:42.154Z,35.50
2023-03-18T13:03:09.197Z,35.21
2023-03-18T13:08:03.446Z,36.90
2023-03-18T13:12:37.979Z,35.90
2023-03-18T13:17:06.407Z,36.04
2023-03-18T13:21:41.421Z,34.78
2023-03-18T13:31:29.880Z,36.16
2023-03-18T13:35:59.792Z,35.96
2023-03-18T13:40:39.950Z,37.41
2023-03-18T13:45:28.708Z,35.61
2023-03-18T13:49:41.495Z,36.08
2023-03-18T13:53:58.925Z,35.20
2023-03-18T13:58:26.085Z,34.45
2023-03-18T14:02:42.140Z,35.34
2023-03-18T14:07:19.812Z,35.09
2023-03-18T14:11:45.508Z,34.75
2023-03-18T14:15:59.257Z,34.85
2023-03-18T14:20:22.741Z,33.50
2023-03-18T14:24:40.460Z,34.44
2023-03-18T14:29:18.598Z,34.22
2023-03-18T14:33:37.250Z,34.81
2023-03-18T14:38:17.770Z,33.63
2023-03-18T14:42:48.892Z,34.53
2023-03-18T14:47:06.945Z,34.62
2023-03-18T14:51:21.775Z,35.56
2023-03-18T14:55:36.243Z,36.24
2023-03-18T14:59:50.941Z,36.47
2023-03-18T15:04:04.235Z,37.09
2023-03-18T15:08:37.452Z,37.95
2023-03-18T15:13:26.498Z,37.77
2023-03-18T15:17:39.732Z,38.23
2023-03-18T15:21:52.918Z,39.19
2023-03-18T15:26:29.221Z,39.66
2023-03-18T15:30:58.109Z,40.11
2023-03-18T15:35:29.162Z,40.17
2023-03-18T15:39:42.551Z,40.81
2023-03-18T15:43:55.021Z,41.11
2023-03-18T15:48:17.131Z,41.54
2023-03-18T15:52:36.935Z,42.12
2023-03-18T15:56:50.468Z,41.14
2023-03-18T16:01:03.170Z,42.43
2023-03-18T16:05:17.718Z,42.80
2023-03-18T16:09:36.285Z,43.50
2023-03-18T16:13:49.267Z,44.20
2023-03-18T16:18:06.866Z,46.03
2023-03-18T16:22:19.390Z,46.27
2023-03-18T16:26:37.710Z,45.25
2023-03-18T16:30:56.364Z,44.02
2023-03-18T16:35:13.350Z,44.58
2023-03-18T16:39:34.216Z,45.70
2023-03-18T16:43:49.409Z,47.15
2023-03-18T16:48:05.132Z,48.82
2023-03-18T16:52:18.335Z,49.87
2023-03-18T16:56:31.847Z,52.17
2023-03-18T17:00:48.378Z,52.81
2023-03-18T17:05:01.703Z,53.97
2023-03-18T17:09:14.368Z,54.91
2023-03-18T17:13:33.108Z,55.69
2023-03-18T17:17:46.107Z,56.02
2023-03-18T17:21:58.537Z,58.09
2023-03-18T17:26:15.309Z,58.28
2023-03-18T17:30:39.810Z,60.01
2023-03-18T17:34:54.249Z,60.78
2023-03-18T17:39:06.626Z,62.31
2023-03-18T17:43:38.013Z,62.17
2023-03-18T17:47:50.568Z,63.14
2023-03-18T17:52:02.945Z,62.96
2023-03-18T17:56:17.533Z,64.35
2023-03-18T18:00:31.277Z,63.68
2023-03-18T18:04:46.033Z,64.86
2023-03-18T18:09:00.750Z,65.41
2023-03-18T18:13:19.623Z,65.78
2023-03-18T18:17:32.602Z,66.40
2023-03-18T18:21:46.817Z,67.37
2023-03-18T18:26:02.182Z,66.70
2023-03-18T18:30:20.609Z,67.55
2023-03-18T18:34:33.238Z,67.05
2023-03-18T18:38:46.226Z,67.65
2023-03-18T18:42:58.609Z,68.43
2023-03-18T18:47:21.490Z,69.03
2023-03-18T18:51:35.273Z,68.99
2023-03-18T18:55:47.896Z,68.70
2023-03-18T19:00:00.184Z,68.85
2023-03-18T19:04:16.012Z,69.29
2023-03-18T19:08:31.957Z,69.34
2023-03-18T19:12:44.929Z,70.12
2023-03-18T19:16:59.131Z,69.89
2023-03-18T19:21:12.224Z,70.83
2023-03-18T19:25:26.002Z,70.74
2023-03-18T19:29:38.757Z,71.52
2023-03-18T19:33:52.374Z,69.46
2023-03-18T19:38:04.867Z,67.25
2023-03-18T19:42:19.012Z,66.44
2023-03-18T19:46:37.228Z,66.39
2023-03-18T19:50:50.415Z,66.55
2023-03-18T19:55:08.520Z,68.11
2023-03-18T19:59:26.093Z,67.03
2023-03-18T20:03:38.919Z,67.59
2023-03-18T20:07:51.287Z,66.78
2023-03-18T20:12:05.993Z,66.35
2023-03-18T20:16:19.708Z,66.96
2023-03-18T20:20:33.854Z,67.00
2023-03-18T20:24:47.569Z,66.89
2023-03-18T20:29:00.238Z,66.89
2023-03-18T20:33:15.914Z,66.97
2023-03-18T20:37:34.986Z,67.59
2023-03-18T20:41:48.325Z,68.13
2023-03-18T20:46:02.225Z,67.21
2023-03-18T20:50:26.355Z,67.79
2023-03-18T20:54:38.759Z,67.90
2023-03-18T20:58:51.715Z,68.42
2023-03-18T21:03:04.201Z,69.90
2023-03-18T21:07:16.933Z,69.81
2023-03-18T21:11:32.922Z,66.87
2023-03-18T21:15:45.731Z,67.90
2023-03-18T21:20:11.027Z,68.66
2023-03-18T21:24:28.717Z,67.70
2023-03-18T21:28:41.075Z,68.36
2023-03-18T21:32:53.549Z,69.58
2023-03-18T21:37:15.272Z,70.12
2023-03-18T21:41:31.201Z,70.47
2023-03-18T21:45:43.657Z,72.54
2023-03-18T21:49:57.580Z,73.84
2023-03-18T21:54:18.678Z,74.49
2023-03-18T21:58:31.149Z,75.32
2023-03-18T22:02:44.136Z,75.02
2023-03-18T22:06:56.635Z,75.52
2023-03-18T22:11:23.099Z,75.94
2023-03-18T22:15:39.927Z,76.07
2023-03-18T22:19:52.904Z,76.03
2023-03-18T22:24:05.591Z,76.41
2023-03-18T22:28:18.660Z,75.22
2023-03-18T22:32:43.221Z,76.08
2023-03-18T22:36:55.876Z,75.90
2023-03-18T22:41:19.583Z,76.40
2023-03-18T22:45:34.228Z,77.17
2023-03-18T22:49:47.287Z,77.09
2023-03-18T22:53:59.705Z,76.06
2023-03-18T22:58:20.876Z,74.60
2023-03-18T23:02:33.277Z,73.90
2023-03-18T23:06:46.417Z,73.29
2023-03-18T23:11:01.993Z,74.17
2023-03-18T23:15:18.347Z,73.88
2023-03-18T23:19:30.738Z,73.18
2023-03-18T23:23:43.379Z,73.89
2023-03-18T23:27:55.768Z,75.05
2023-03-18T23:32:08.460Z,75.24
2023-03-18T23:36:20.915Z,73.80
2023-03-18T23:40:33.845Z,73.67
2023-03-18T23:44:46.974Z,72.60
2023-03-18T23:48:59.772Z,73.37
2023-03-18T23:53:12.158Z,73.76
2023-03-18T23:57:24.687Z,74.46
